sensor_id;sensor_type;location;lat;lon;timestamp;temperature;humidity
16503;DHT22;53067;48.114;11.694;2022-07-06T00:00:19;20.40;54.90
16503;DHT22;53067;48.114;11.694;2022-07-06T00:02:46;20.40;54.60
16503;DHT22;53067;48.114;11.694;2022-07-06T00:05:14;20.40;54.70
16503;DHT22;53067;48.114;11.694;2022-07-06T00:07:41;20.40;54.70
16503;DHT22;53067;48.114;11.694;2022-07-06T00:10:09;20.40;54.80
16503;DHT22;53067;48.114;11.694;2022-07-06T00:12:36;20.40;55.00
16503;DHT22;53067;48.114;11.694;2022-07-06T00:15:04;20.40;54.80
16503;DHT22;53067;48.114;11.694;2022-07-06T00:17:32;20.30;55.00
16503;DHT22;53067;48.114;11.694;2022-07-06T00:19:59;20.30;54.90
16503;DHT22;53067;48.114;11.694;2022-07-06T00:22:27;20.40;55.00
16503;DHT22;53067;48.114;11.694;2022-07-06T00:24:54;20.40;55.00
16503;DHT22;53067;48.114;11.694;2022-07-06T00:27:22;20.40;55.20
16503;DHT22;53067;48.114;11.694;2022-07-06T00:29:49;20.40;55.30
16503;DHT22;53067;48.114;11.694;2022-07-06T00:32:17;20.50;55.30
16503;DHT22;53067;48.114;11.694;2022-07-06T00:34:45;20.50;55.30
16503;DHT22;53067;48.114;11.694;2022-07-06T00:37:12;20.40;55.60
16503;DHT22;53067;48.114;11.694;2022-07-06T00:39:42;20.40;55.60
16503;DHT22;53067;48.114;11.694;2022-07-06T00:42:09;20.50;55.60
16503;DHT22;53067;48.114;11.694;2022-07-06T00:44:37;20.40;55.90
16503;DHT22;53067;48.114;11.694;2022-07-06T00:47:04;20.50;56.00
16503;DHT22;53067;48.114;11.694;2022-07-06T00:49:34;20.40;56.20
16503;DHT22;53067;48.114;11.694;2022-07-06T00:52:19;20.40;56.50
16503;DHT22;53067;48.114;11.694;2022-07-06T00:54:47;20.40;56.50
16503;DHT22;53067;48.114;11.694;2022-07-06T00:57:15;20.30;56.80
16503;DHT22;53067;48.114;11.694;2022-07-06T00:59:43;20.30;57.00
16503;DHT22;53067;48.114;11.694;2022-07-06T01:02:10;20.30;57.10
16503;DHT22;53067;48.114;11.694;2022-07-06T01:04:38;20.30;57.30
16503;DHT22;53067;48.114;11.694;2022-07-06T01:07:05;20.30;57.30
16503;DHT22;53067;48.114;11.694;2022-07-06T01:09:33;20.20;57.60
16503;DHT22;53067;48.114;11.694;2022-07-06T01:12:00;20.20;57.90
16503;DHT22;53067;48.114;11.694;2022-07-06T01:14:28;20.10;58.10
16503;DHT22;53067;48.114;11.694;2022-07-06T01:16:56;20.10;58.20
16503;DHT22;53067;48.114;11.694;2022-07-06T01:19:23;20.10;58.50
16503;DHT22;53067;48.114;11.694;2022-07-06T01:21:51;20.20;58.40
16503;DHT22;53067;48.114;11.694;2022-07-06T01:24:19;20.20;58.40
16503;DHT22;53067;48.114;11.694;2022-07-06T01:26:46;20.20;58.30
16503;DHT22;53067;48.114;11.694;2022-07-06T01:29:14;20.20;58.50
16503;DHT22;53067;48.114;11.694;2022-07-06T01:31:47;20.10;58.50
16503;DHT22;53067;48.114;11.694;2022-07-06T01:34:18;20.20;59.20
16503;DHT22;53067;48.114;11.694;2022-07-06T01:36:46;20.10;58.50
16503;DHT22;53067;48.114;11.694;2022-07-06T01:39:13;20.10;58.50
16503;DHT22;53067;48.114;11.694;2022-07-06T01:41:41;20.10;58.60
16503;DHT22;53067;48.114;11.694;2022-07-06T01:44:09;20.00;58.80
16503;DHT22;53067;48.114;11.694;2022-07-06T01:46:36;20.00;59.00
16503;DHT22;53067;48.114;11.694;2022-07-06T01:49:04;20.00;59.20
16503;DHT22;53067;48.114;11.694;2022-07-06T01:51:33;19.90;59.20
16503;DHT22;53067;48.114;11.694;2022-07-06T01:54:00;19.90;59.10
16503;DHT22;53067;48.114;11.694;2022-07-06T01:56:28;19.90;59.20
16503;DHT22;53067;48.114;11.694;2022-07-06T01:58:55;19.80;59.30
16503;DHT22;53067;48.114;11.694;2022-07-06T02:01:23;19.80;59.50
16503;DHT22;53067;48.114;11.694;2022-07-06T02:03:51;19.80;59.70
16503;DHT22;53067;48.114;11.694;2022-07-06T02:06:18;19.70;59.70
16503;DHT22;53067;48.114;11.694;2022-07-06T02:08:46;19.70;59.80
16503;DHT22;53067;48.114;11.694;2022-07-06T02:11:13;19.60;59.90
16503;DHT22;53067;48.114;11.694;2022-07-06T02:13:41;19.60;60.30
16503;DHT22;53067;48.114;11.694;2022-07-06T02:16:09;19.50;60.40
16503;DHT22;53067;48.114;11.694;2022-07-06T02:18:36;19.50;60.50
16503;DHT22;53067;48.114;11.694;2022-07-06T02:21:05;19.50;60.60
16503;DHT22;53067;48.114;11.694;2022-07-06T02:23:32;19.50;60.40
16503;DHT22;53067;48.114;11.694;2022-07-06T02:26:00;19.50;60.60
16503;DHT22;53067;48.114;11.694;2022-07-06T02:28:27;19.50;60.70
16503;DHT22;53067;48.114;11.694;2022-07-06T02:30:55;19.50;60.70
16503;DHT22;53067;48.114;11.694;2022-07-06T02:33:23;19.50;60.70
16503;DHT22;53067;48.114;11.694;2022-07-06T02:35:50;19.40;60.80
16503;DHT22;53067;48.114;11.694;2022-07-06T02:38:18;19.40;60.90
16503;DHT22;53067;48.114;11.694;2022-07-06T02:40:45;19.30;61.10
16503;DHT22;53067;48.114;11.694;2022-07-06T02:43:13;19.30;61.20
16503;DHT22;53067;48.114;11.694;2022-07-06T02:45:40;19.30;61.30
16503;DHT22;53067;48.114;11.694;2022-07-06T02:48:08;19.30;61.20
16503;DHT22;53067;48.114;11.694;2022-07-06T02:50:35;19.20;61.50
16503;DHT22;53067;48.114;11.694;2022-07-06T02:53:03;19.10;61.50
16503;DHT22;53067;48.114;11.694;2022-07-06T02:55:30;19.10;61.50
16503;DHT22;53067;48.114;11.694;2022-07-06T02:57:58;19.20;61.50
16503;DHT22;53067;48.114;11.694;2022-07-06T03:00:25;19.20;61.30
16503;DHT22;53067;48.114;11.694;2022-07-06T03:02:53;19.20;61.30
16503;DHT22;53067;48.114;11.694;2022-07-06T03:05:20;19.20;61.20
16503;DHT22;53067;48.114;11.694;2022-07-06T03:07:48;19.20;61.30
16503;DHT22;53067;48.114;11.694;2022-07-06T03:10:15;19.10;61.30
16503;DHT22;53067;48.114;11.694;2022-07-06T03:12:43;19.10;61.60
16503;DHT22;53067;48.114;11.694;2022-07-06T03:15:10;19.10;61.70
16503;DHT22;53067;48.114;11.694;2022-07-06T03:17:38;19.10;61.50
16503;DHT22;53067;48.114;11.694;2022-07-06T03:20:06;19.10;61.50
16503;DHT22;53067;48.114;11.694;2022-07-06T03:22:34;19.10;61.60
16503;DHT22;53067;48.114;11.694;2022-07-06T03:25:02;19.00;61.70
16503;DHT22;53067;48.114;11.694;2022-07-06T03:27:29;18.90;62.00
16503;DHT22;53067;48.114;11.694;2022-07-06T03:29:57;18.90;62.10
16503;DHT22;53067;48.114;11.694;2022-07-06T03:32:24;19.00;62.00
16503;DHT22;53067;48.114;11.694;2022-07-06T03:34:52;19.00;62.10
16503;DHT22;53067;48.114;11.694;2022-07-06T03:37:19;19.00;62.00
16503;DHT22;53067;48.114;11.694;2022-07-06T03:39:47;19.00;61.80
16503;DHT22;53067;48.114;11.694;2022-07-06T03:42:14;19.00;62.00
16503;DHT22;53067;48.114;11.694;2022-07-06T03:44:42;19.00;61.90
16503;DHT22;53067;48.114;11.694;2022-07-06T03:47:09;19.00;61.80
16503;DHT22;53067;48.114;11.694;2022-07-06T03:49:37;18.90;62.70
16503;DHT22;53067;48.114;11.694;2022-07-06T03:52:04;18.90;62.40
16503;DHT22;53067;48.114;11.694;2022-07-06T03:54:32;18.80;62.60
16503;DHT22;53067;48.114;11.694;2022-07-06T03:56:59;18.80;62.70
16503;DHT22;53067;48.114;11.694;2022-07-06T03:59:27;18.80;62.90
16503;DHT22;53067;48.114;11.694;2022-07-06T04:01:54;18.80;62.90
16503;DHT22;53067;48.114;11.694;2022-07-06T04:04:22;18.80;62.90
16503;DHT22;53067;48.114;11.694;2022-07-06T04:06:49;18.90;62.80
16503;DHT22;53067;48.114;11.694;2022-07-06T04:09:17;18.80;62.90
16503;DHT22;53067;48.114;11.694;2022-07-06T04:11:44;18.80;63.10
16503;DHT22;53067;48.114;11.694;2022-07-06T04:14:12;18.80;63.30
16503;DHT22;53067;48.114;11.694;2022-07-06T04:16:39;18.70;63.50
16503;DHT22;53067;48.114;11.694;2022-07-06T04:19:07;18.60;63.60
16503;DHT22;53067;48.114;11.694;2022-07-06T04:21:34;18.70;63.70
16503;DHT22;53067;48.114;11.694;2022-07-06T04:24:04;18.80;63.70
16503;DHT22;53067;48.114;11.694;2022-07-06T04:26:31;18.80;63.80
16503;DHT22;53067;48.114;11.694;2022-07-06T04:28:59;18.80;63.70
16503;DHT22;53067;48.114;11.694;2022-07-06T04:31:26;18.90;63.70
16503;DHT22;53067;48.114;11.694;2022-07-06T04:33:54;18.90;63.70
16503;DHT22;53067;48.114;11.694;2022-07-06T04:36:21;18.90;63.50
16503;DHT22;53067;48.114;11.694;2022-07-06T04:38:49;19.00;63.50
16503;DHT22;53067;48.114;11.694;2022-07-06T04:41:16;19.10;63.40
16503;DHT22;53067;48.114;11.694;2022-07-06T04:43:44;19.10;63.30
16503;DHT22;53067;48.114;11.694;2022-07-06T04:46:11;19.20;63.30
16503;DHT22;53067;48.114;11.694;2022-07-06T04:48:39;19.20;63.00
16503;DHT22;53067;48.114;11.694;2022-07-06T04:51:07;19.20;63.00
16503;DHT22;53067;48.114;11.694;2022-07-06T04:53:34;19.20;63.00
16503;DHT22;53067;48.114;11.694;2022-07-06T04:56:03;19.20;64.00
16503;DHT22;53067;48.114;11.694;2022-07-06T04:58:31;19.30;63.20
16503;DHT22;53067;48.114;11.694;2022-07-06T05:00:58;19.30;63.00
16503;DHT22;53067;48.114;11.694;2022-07-06T05:03:26;19.50;62.80
16503;DHT22;53067;48.114;11.694;2022-07-06T05:05:54;19.50;62.60
16503;DHT22;53067;48.114;11.694;2022-07-06T05:08:21;19.60;62.40
16503;DHT22;53067;48.114;11.694;2022-07-06T05:10:49;19.60;62.40
16503;DHT22;53067;48.114;11.694;2022-07-06T05:13:18;19.70;62.10
16503;DHT22;53067;48.114;11.694;2022-07-06T05:15:46;19.70;61.70
16503;DHT22;53067;48.114;11.694;2022-07-06T05:18:13;19.70;62.00
16503;DHT22;53067;48.114;11.694;2022-07-06T05:20:41;19.70;61.80
16503;DHT22;53067;48.114;11.694;2022-07-06T05:23:09;19.60;61.90
16503;DHT22;53067;48.114;11.694;2022-07-06T05:25:36;19.60;62.10
16503;DHT22;53067;48.114;11.694;2022-07-06T05:28:04;19.60;62.10
16503;DHT22;53067;48.114;11.694;2022-07-06T05:30:32;19.70;62.10
16503;DHT22;53067;48.114;11.694;2022-07-06T05:32:59;19.70;61.80
16503;DHT22;53067;48.114;11.694;2022-07-06T05:35:27;19.80;61.60
16503;DHT22;53067;48.114;11.694;2022-07-06T05:37:55;19.80;61.30
16503;DHT22;53067;48.114;11.694;2022-07-06T05:40:23;19.80;60.80
16503;DHT22;53067;48.114;11.694;2022-07-06T05:42:50;19.90;60.80
16503;DHT22;53067;48.114;11.694;2022-07-06T05:45:18;20.00;60.80
16503;DHT22;53067;48.114;11.694;2022-07-06T05:47:45;20.00;60.10
16503;DHT22;53067;48.114;11.694;2022-07-06T05:50:31;20.10;60.00
16503;DHT22;53067;48.114;11.694;2022-07-06T05:53:01;20.10;59.50
16503;DHT22;53067;48.114;11.694;2022-07-06T05:55:29;20.10;59.50
16503;DHT22;53067;48.114;11.694;2022-07-06T05:57:56;20.10;59.00
16503;DHT22;53067;48.114;11.694;2022-07-06T06:00:25;20.20;59.20
16503;DHT22;53067;48.114;11.694;2022-07-06T06:02:53;20.20;58.50
16503;DHT22;53067;48.114;11.694;2022-07-06T06:05:21;20.30;58.40
16503;DHT22;53067;48.114;11.694;2022-07-06T06:07:49;20.30;58.20
16503;DHT22;53067;48.114;11.694;2022-07-06T06:10:18;20.40;57.80
16503;DHT22;53067;48.114;11.694;2022-07-06T06:12:46;20.50;57.20
16503;DHT22;53067;48.114;11.694;2022-07-06T06:15:14;20.60;56.70
16503;DHT22;53067;48.114;11.694;2022-07-06T06:17:42;20.60;56.60
16503;DHT22;53067;48.114;11.694;2022-07-06T06:20:12;20.70;56.70
16503;DHT22;53067;48.114;11.694;2022-07-06T06:22:50;20.70;55.70
16503;DHT22;53067;48.114;11.694;2022-07-06T06:25:20;20.80;56.00
16503;DHT22;53067;48.114;11.694;2022-07-06T06:27:48;20.80;55.60
16503;DHT22;53067;48.114;11.694;2022-07-06T06:30:16;20.80;55.10
16503;DHT22;53067;48.114;11.694;2022-07-06T06:32:43;20.80;55.00
16503;DHT22;53067;48.114;11.694;2022-07-06T06:35:11;20.80;55.40
16503;DHT22;53067;48.114;11.694;2022-07-06T06:37:39;20.80;55.10
16503;DHT22;53067;48.114;11.694;2022-07-06T06:40:07;20.80;55.70
16503;DHT22;53067;48.114;11.694;2022-07-06T06:42:37;20.90;56.30
16503;DHT22;53067;48.114;11.694;2022-07-06T06:45:06;21.00;55.40
16503;DHT22;53067;48.114;11.694;2022-07-06T06:47:33;21.00;55.30
16503;DHT22;53067;48.114;11.694;2022-07-06T06:50:01;21.10;55.20
16503;DHT22;53067;48.114;11.694;2022-07-06T06:52:28;21.10;55.20
16503;DHT22;53067;48.114;11.694;2022-07-06T06:54:56;21.20;55.00
16503;DHT22;53067;48.114;11.694;2022-07-06T06:57:23;21.20;54.60
16503;DHT22;53067;48.114;11.694;2022-07-06T06:59:51;21.30;53.50
16503;DHT22;53067;48.114;11.694;2022-07-06T07:02:18;21.30;53.40
16503;DHT22;53067;48.114;11.694;2022-07-06T07:04:46;21.40;53.20
16503;DHT22;53067;48.114;11.694;2022-07-06T07:07:13;21.40;52.80
16503;DHT22;53067;48.114;11.694;2022-07-06T07:09:42;21.40;52.60
16503;DHT22;53067;48.114;11.694;2022-07-06T07:12:09;21.40;53.80
16503;DHT22;53067;48.114;11.694;2022-07-06T07:14:38;21.40;53.00
16503;DHT22;53067;48.114;11.694;2022-07-06T07:17:06;21.50;53.10
16503;DHT22;53067;48.114;11.694;2022-07-06T07:19:33;21.50;52.30
16503;DHT22;53067;48.114;11.694;2022-07-06T07:22:01;21.60;52.00
16503;DHT22;53067;48.114;11.694;2022-07-06T07:24:28;21.60;51.50
16503;DHT22;53067;48.114;11.694;2022-07-06T07:26:56;21.70;51.30
16503;DHT22;53067;48.114;11.694;2022-07-06T07:29:24;21.70;51.40
16503;DHT22;53067;48.114;11.694;2022-07-06T07:31:51;21.80;50.90
16503;DHT22;53067;48.114;11.694;2022-07-06T07:34:19;21.90;50.60
16503;DHT22;53067;48.114;11.694;2022-07-06T07:36:46;21.90;49.60
16503;DHT22;53067;48.114;11.694;2022-07-06T07:39:14;21.90;49.70
16503;DHT22;53067;48.114;11.694;2022-07-06T07:41:42;21.90;50.10
16503;DHT22;53067;48.114;11.694;2022-07-06T07:44:09;21.90;50.40
16503;DHT22;53067;48.114;11.694;2022-07-06T07:46:37;22.00;50.40
16503;DHT22;53067;48.114;11.694;2022-07-06T07:49:05;22.00;50.30
16503;DHT22;53067;48.114;11.694;2022-07-06T07:51:33;22.10;50.00
16503;DHT22;53067;48.114;11.694;2022-07-06T07:54:00;22.20;49.60
16503;DHT22;53067;48.114;11.694;2022-07-06T07:56:28;22.30;49.70
16503;DHT22;53067;48.114;11.694;2022-07-06T07:58:55;22.40;49.00
16503;DHT22;53067;48.114;11.694;2022-07-06T08:01:23;22.50;49.30
16503;DHT22;53067;48.114;11.694;2022-07-06T08:03:50;22.70;48.00
16503;DHT22;53067;48.114;11.694;2022-07-06T08:06:18;22.70;47.10
16503;DHT22;53067;48.114;11.694;2022-07-06T08:08:45;22.80;47.40
16503;DHT22;53067;48.114;11.694;2022-07-06T08:11:13;22.90;46.60
16503;DHT22;53067;48.114;11.694;2022-07-06T08:13:40;22.90;46.70
16503;DHT22;53067;48.114;11.694;2022-07-06T08:16:08;23.00;45.60
16503;DHT22;53067;48.114;11.694;2022-07-06T08:18:36;23.10;46.10
16503;DHT22;53067;48.114;11.694;2022-07-06T08:21:04;23.20;45.90
16503;DHT22;53067;48.114;11.694;2022-07-06T08:23:32;23.20;45.30
16503;DHT22;53067;48.114;11.694;2022-07-06T08:26:02;23.30;44.50
16503;DHT22;53067;48.114;11.694;2022-07-06T08:28:30;23.20;44.50
16503;DHT22;53067;48.114;11.694;2022-07-06T08:30:58;23.30;45.30
16503;DHT22;53067;48.114;11.694;2022-07-06T08:33:25;23.30;44.90
16503;DHT22;53067;48.114;11.694;2022-07-06T08:35:53;23.40;45.20
16503;DHT22;53067;48.114;11.694;2022-07-06T08:38:20;23.50;44.60
16503;DHT22;53067;48.114;11.694;2022-07-06T08:40:49;23.60;44.50
16503;DHT22;53067;48.114;11.694;2022-07-06T08:43:17;23.60;44.90
16503;DHT22;53067;48.114;11.694;2022-07-06T08:45:45;23.70;45.20
16503;DHT22;53067;48.114;11.694;2022-07-06T08:48:13;23.80;45.60
16503;DHT22;53067;48.114;11.694;2022-07-06T08:50:41;23.90;45.40
16503;DHT22;53067;48.114;11.694;2022-07-06T08:53:09;23.90;45.70
16503;DHT22;53067;48.114;11.694;2022-07-06T08:55:36;24.00;43.70
16503;DHT22;53067;48.114;11.694;2022-07-06T08:58:05;24.00;44.70
16503;DHT22;53067;48.114;11.694;2022-07-06T09:00:34;24.10;45.90
16503;DHT22;53067;48.114;11.694;2022-07-06T09:03:02;24.30;45.50
16503;DHT22;53067;48.114;11.694;2022-07-06T09:05:31;24.40;44.00
16503;DHT22;53067;48.114;11.694;2022-07-06T09:07:59;24.60;43.80
16503;DHT22;53067;48.114;11.694;2022-07-06T09:10:27;24.60;44.00
16503;DHT22;53067;48.114;11.694;2022-07-06T09:13:04;24.80;44.50
16503;DHT22;53067;48.114;11.694;2022-07-06T09:15:33;25.00;44.10
16503;DHT22;53067;48.114;11.694;2022-07-06T09:18:03;25.10;42.30
16503;DHT22;53067;48.114;11.694;2022-07-06T09:20:31;25.10;42.50
16503;DHT22;53067;48.114;11.694;2022-07-06T09:23:00;25.30;42.30
16503;DHT22;53067;48.114;11.694;2022-07-06T09:25:28;25.30;41.80
16503;DHT22;53067;48.114;11.694;2022-07-06T09:27:57;25.30;41.40
16503;DHT22;53067;48.114;11.694;2022-07-06T09:30:27;25.40;41.00
16503;DHT22;53067;48.114;11.694;2022-07-06T09:32:57;25.40;39.70
16503;DHT22;53067;48.114;11.694;2022-07-06T09:35:27;25.30;40.10
16503;DHT22;53067;48.114;11.694;2022-07-06T09:38:10;25.30;40.30
16503;DHT22;53067;48.114;11.694;2022-07-06T09:40:40;25.30;40.80
16503;DHT22;53067;48.114;11.694;2022-07-06T09:45:49;25.20;42.20
16503;DHT22;53067;48.114;11.694;2022-07-06T09:48:16;25.30;40.90
16503;DHT22;53067;48.114;11.694;2022-07-06T09:50:52;25.30;42.10
16503;DHT22;53067;48.114;11.694;2022-07-06T09:53:22;25.40;41.70
16503;DHT22;53067;48.114;11.694;2022-07-06T09:55:54;25.40;42.30
16503;DHT22;53067;48.114;11.694;2022-07-06T09:58:22;25.50;40.90
16503;DHT22;53067;48.114;11.694;2022-07-06T10:00:50;25.50;41.20
16503;DHT22;53067;48.114;11.694;2022-07-06T10:03:18;25.50;40.10
16503;DHT22;53067;48.114;11.694;2022-07-06T10:05:47;25.60;38.50
16503;DHT22;53067;48.114;11.694;2022-07-06T10:08:17;25.60;39.20
16503;DHT22;53067;48.114;11.694;2022-07-06T10:10:45;25.50;38.90
16503;DHT22;53067;48.114;11.694;2022-07-06T10:13:15;25.50;39.10
16503;DHT22;53067;48.114;11.694;2022-07-06T10:15:44;25.60;40.30
16503;DHT22;53067;48.114;11.694;2022-07-06T10:18:12;25.70;38.90
16503;DHT22;53067;48.114;11.694;2022-07-06T10:20:40;25.80;39.40
16503;DHT22;53067;48.114;11.694;2022-07-06T10:23:08;25.90;39.20
16503;DHT22;53067;48.114;11.694;2022-07-06T10:25:36;25.90;37.70
16503;DHT22;53067;48.114;11.694;2022-07-06T10:28:04;25.80;38.00
16503;DHT22;53067;48.114;11.694;2022-07-06T10:30:33;25.70;38.00
16503;DHT22;53067;48.114;11.694;2022-07-06T10:33:01;25.70;38.60
16503;DHT22;53067;48.114;11.694;2022-07-06T10:35:28;25.70;39.10
16503;DHT22;53067;48.114;11.694;2022-07-06T10:38:07;25.90;39.00
16503;DHT22;53067;48.114;11.694;2022-07-06T10:40:37;26.00;39.00
16503;DHT22;53067;48.114;11.694;2022-07-06T10:43:23;26.10;39.80
16503;DHT22;53067;48.114;11.694;2022-07-06T10:45:52;26.20;38.40
16503;DHT22;53067;48.114;11.694;2022-07-06T10:48:20;26.20;37.00
16503;DHT22;53067;48.114;11.694;2022-07-06T10:50:51;26.20;37.50
16503;DHT22;53067;48.114;11.694;2022-07-06T10:53:32;26.30;38.40
16503;DHT22;53067;48.114;11.694;2022-07-06T10:55:56;26.30;37.50
16503;DHT22;53067;48.114;11.694;2022-07-06T11:01:08;26.40;37.10
16503;DHT22;53067;48.114;11.694;2022-07-06T11:03:40;26.50;38.40
16503;DHT22;53067;48.114;11.694;2022-07-06T11:08:53;26.70;37.20
16503;DHT22;53067;48.114;11.694;2022-07-06T11:14:06;26.70;36.90
16503;DHT22;53067;48.114;11.694;2022-07-06T11:19:23;26.70;35.60
16503;DHT22;53067;48.114;11.694;2022-07-06T11:21:58;26.60;36.30
16503;DHT22;53067;48.114;11.694;2022-07-06T11:24:31;26.60;36.70
16503;DHT22;53067;48.114;11.694;2022-07-06T11:27:00;26.50;36.30
16503;DHT22;53067;48.114;11.694;2022-07-06T11:29:29;26.50;36.50
16503;DHT22;53067;48.114;11.694;2022-07-06T11:31:59;26.60;37.10
16503;DHT22;53067;48.114;11.694;2022-07-06T11:34:32;26.70;37.40
16503;DHT22;53067;48.114;11.694;2022-07-06T11:37:03;26.90;37.20
16503;DHT22;53067;48.114;11.694;2022-07-06T11:39:32;27.20;37.30
16503;DHT22;53067;48.114;11.694;2022-07-06T11:42:01;27.20;37.50
16503;DHT22;53067;48.114;11.694;2022-07-06T11:44:30;27.30;37.00
16503;DHT22;53067;48.114;11.694;2022-07-06T11:46:58;27.40;36.90
16503;DHT22;53067;48.114;11.694;2022-07-06T11:49:29;27.40;35.90
16503;DHT22;53067;48.114;11.694;2022-07-06T11:51:57;27.50;35.40
16503;DHT22;53067;48.114;11.694;2022-07-06T11:54:25;27.50;36.50
16503;DHT22;53067;48.114;11.694;2022-07-06T11:56:58;27.60;37.20
16503;DHT22;53067;48.114;11.694;2022-07-06T11:59:28;27.70;35.00
16503;DHT22;53067;48.114;11.694;2022-07-06T12:02:15;27.70;33.80
16503;DHT22;53067;48.114;11.694;2022-07-06T12:04:43;27.50;34.50
16503;DHT22;53067;48.114;11.694;2022-07-06T12:07:13;27.40;35.00
16503;DHT22;53067;48.114;11.694;2022-07-06T12:09:43;27.50;34.80
16503;DHT22;53067;48.114;11.694;2022-07-06T12:12:12;27.50;33.60
16503;DHT22;53067;48.114;11.694;2022-07-06T12:14:41;27.40;33.10
16503;DHT22;53067;48.114;11.694;2022-07-06T12:17:10;27.30;33.90
16503;DHT22;53067;48.114;11.694;2022-07-06T12:19:39;27.20;35.10
16503;DHT22;53067;48.114;11.694;2022-07-06T12:22:08;27.30;35.40
16503;DHT22;53067;48.114;11.694;2022-07-06T12:24:37;27.40;35.60
16503;DHT22;53067;48.114;11.694;2022-07-06T12:27:16;27.70;34.30
16503;DHT22;53067;48.114;11.694;2022-07-06T12:29:44;27.80;33.60
16503;DHT22;53067;48.114;11.694;2022-07-06T12:32:17;27.80;33.60
16503;DHT22;53067;48.114;11.694;2022-07-06T12:34:45;27.80;33.40
16503;DHT22;53067;48.114;11.694;2022-07-06T12:37:13;27.90;34.40
16503;DHT22;53067;48.114;11.694;2022-07-06T12:39:44;27.90;33.40
16503;DHT22;53067;48.114;11.694;2022-07-06T12:42:13;27.90;33.90
16503;DHT22;53067;48.114;11.694;2022-07-06T12:44:50;27.90;33.00
16503;DHT22;53067;48.114;11.694;2022-07-06T12:47:19;27.90;33.10
16503;DHT22;53067;48.114;11.694;2022-07-06T12:49:47;27.90;33.30
16503;DHT22;53067;48.114;11.694;2022-07-06T12:52:17;28.00;33.40
16503;DHT22;53067;48.114;11.694;2022-07-06T12:54:48;28.20;32.90
16503;DHT22;53067;48.114;11.694;2022-07-06T12:57:23;28.20;32.30
16503;DHT22;53067;48.114;11.694;2022-07-06T12:59:57;28.20;31.60
16503;DHT22;53067;48.114;11.694;2022-07-06T13:02:33;28.00;31.60
16503;DHT22;53067;48.114;11.694;2022-07-06T13:05:07;27.90;32.70
16503;DHT22;53067;48.114;11.694;2022-07-06T13:07:37;27.80;32.50
16503;DHT22;53067;48.114;11.694;2022-07-06T13:10:07;27.80;32.10
16503;DHT22;53067;48.114;11.694;2022-07-06T13:12:37;27.80;31.20
16503;DHT22;53067;48.114;11.694;2022-07-06T13:15:06;27.80;31.20
16503;DHT22;53067;48.114;11.694;2022-07-06T13:17:34;27.80;30.40
16503;DHT22;53067;48.114;11.694;2022-07-06T13:20:10;27.90;31.40
16503;DHT22;53067;48.114;11.694;2022-07-06T13:22:33;28.00;31.50
16503;DHT22;53067;48.114;11.694;2022-07-06T13:25:01;28.00;31.30
16503;DHT22;53067;48.114;11.694;2022-07-06T13:27:28;28.00;31.70
16503;DHT22;53067;48.114;11.694;2022-07-06T13:29:56;28.00;31.60
16503;DHT22;53067;48.114;11.694;2022-07-06T13:32:24;28.00;31.60
16503;DHT22;53067;48.114;11.694;2022-07-06T13:34:51;27.90;32.60
16503;DHT22;53067;48.114;11.694;2022-07-06T13:37:20;28.00;33.90
16503;DHT22;53067;48.114;11.694;2022-07-06T13:39:50;28.20;33.30
16503;DHT22;53067;48.114;11.694;2022-07-06T13:42:17;28.40;32.30
16503;DHT22;53067;48.114;11.694;2022-07-06T13:44:45;28.30;32.00
16503;DHT22;53067;48.114;11.694;2022-07-06T13:47:12;28.20;32.30
16503;DHT22;53067;48.114;11.694;2022-07-06T13:49:40;28.30;31.20
16503;DHT22;53067;48.114;11.694;2022-07-06T13:52:09;28.40;30.60
16503;DHT22;53067;48.114;11.694;2022-07-06T13:54:36;28.60;31.30
16503;DHT22;53067;48.114;11.694;2022-07-06T13:57:04;28.70;30.00
16503;DHT22;53067;48.114;11.694;2022-07-06T13:59:33;28.70;30.00
16503;DHT22;53067;48.114;11.694;2022-07-06T14:02:00;28.70;30.00
16503;DHT22;53067;48.114;11.694;2022-07-06T14:04:28;28.70;30.00
16503;DHT22;53067;48.114;11.694;2022-07-06T14:06:55;28.60;29.80
16503;DHT22;53067;48.114;11.694;2022-07-06T14:09:23;28.50;30.00
16503;DHT22;53067;48.114;11.694;2022-07-06T14:11:51;28.40;30.00
16503;DHT22;53067;48.114;11.694;2022-07-06T14:14:18;28.40;30.00
16503;DHT22;53067;48.114;11.694;2022-07-06T14:16:46;28.50;31.20
16503;DHT22;53067;48.114;11.694;2022-07-06T14:19:13;28.60;31.30
16503;DHT22;53067;48.114;11.694;2022-07-06T14:21:41;28.60;31.10
16503;DHT22;53067;48.114;11.694;2022-07-06T14:24:08;28.70;30.30
16503;DHT22;53067;48.114;11.694;2022-07-06T14:26:36;28.70;30.10
16503;DHT22;53067;48.114;11.694;2022-07-06T14:29:04;28.60;30.60
16503;DHT22;53067;48.114;11.694;2022-07-06T14:31:31;28.90;30.70
16503;DHT22;53067;48.114;11.694;2022-07-06T14:33:59;29.30;31.20
16503;DHT22;53067;48.114;11.694;2022-07-06T14:36:26;29.90;29.80
16503;DHT22;53067;48.114;11.694;2022-07-06T14:38:54;30.50;30.00
16503;DHT22;53067;48.114;11.694;2022-07-06T14:41:21;31.20;29.60
16503;DHT22;53067;48.114;11.694;2022-07-06T14:43:49;31.70;27.80
16503;DHT22;53067;48.114;11.694;2022-07-06T14:46:16;31.90;26.80
16503;DHT22;53067;48.114;11.694;2022-07-06T14:48:44;31.90;26.70
16503;DHT22;53067;48.114;11.694;2022-07-06T14:51:11;31.30;26.90
16503;DHT22;53067;48.114;11.694;2022-07-06T14:53:39;30.90;27.70
16503;DHT22;53067;48.114;11.694;2022-07-06T14:56:07;30.70;28.10
16503;DHT22;53067;48.114;11.694;2022-07-06T14:58:35;30.40;28.30
16503;DHT22;53067;48.114;11.694;2022-07-06T15:01:02;30.20;29.00
16503;DHT22;53067;48.114;11.694;2022-07-06T15:03:30;30.00;28.50
16503;DHT22;53067;48.114;11.694;2022-07-06T15:05:57;29.70;28.90
16503;DHT22;53067;48.114;11.694;2022-07-06T15:08:25;29.50;29.00
16503;DHT22;53067;48.114;11.694;2022-07-06T15:10:53;29.40;29.30
16503;DHT22;53067;48.114;11.694;2022-07-06T15:13:20;29.40;30.20
16503;DHT22;53067;48.114;11.694;2022-07-06T15:15:48;29.30;30.30
16503;DHT22;53067;48.114;11.694;2022-07-06T15:18:15;29.10;30.00
16503;DHT22;53067;48.114;11.694;2022-07-06T15:20:43;29.00;30.20
16503;DHT22;53067;48.114;11.694;2022-07-06T15:23:11;28.90;30.30
16503;DHT22;53067;48.114;11.694;2022-07-06T15:25:38;28.90;30.80
16503;DHT22;53067;48.114;11.694;2022-07-06T15:28:06;28.90;30.40
16503;DHT22;53067;48.114;11.694;2022-07-06T15:30:33;28.90;30.40
16503;DHT22;53067;48.114;11.694;2022-07-06T15:33:02;28.80;31.60
16503;DHT22;53067;48.114;11.694;2022-07-06T15:35:30;28.80;31.50